Bookmark and Share
Track history (hours):
 

Kagamaru

Last reported at 2014-Apr-21 14:33 UTC. Time now 2014-Apr-21 15:14 UTC.
Position N 35°27' E 139°39'.

Length 34 m; draft 3.6 m.

Type: Tug. MMSI: 431001272.

NotesDate/timePositionNaut miles runAvg speedWind from/ knotsBaromVisibWave heightAir tempDewpointWater temp
2014-Apr-21 14:33N 35°27' E 139°39'0 0.0
2014-Apr-21 13:33N 35°27' E 139°39'0 0.0
2014-Apr-21 12:33N 35°27' E 139°39'0 0.0
2014-Apr-21 11:33N 35°27' E 139°39'0 0.0
2014-Apr-21 10:33N 35°27' E 139°39'0 0.0
2014-Apr-21 09:33N 35°27' E 139°39'2 1.9
2014-Apr-21 08:33N 35°28' E 139°41'3 2.9
2014-Apr-21 07:33N 35°27' E 139°44'4 3.9
2014-Apr-21 06:33N 35°30' E 139°47'1 1.0
2014-Apr-21 05:33N 35°30' E 139°45'6 6.0
2014-Apr-21 04:33N 35°27' E 139°39'0 0.0
2014-Apr-21 03:34N 35°27' E 139°39'0 0.0
2014-Apr-21 02:33N 35°27' E 139°39'0 0.0
2014-Apr-21 01:33N 35°27' E 139°39'0 0.0
2014-Apr-21 00:33N 35°27' E 139°39'0 0.0
2014-Apr-20 23:33N 35°27' E 139°39'1 1.5
2014-Apr-20 22:34N 35°27' E 139°41'1 1.4
2014-Apr-20 21:33N 35°27' E 139°39'  
2014-Apr-18 08:32N 35°27' E 139°39'7 6.7
2014-Apr-18 07:33N 35°30' E 139°46'1 0.6
2014-Apr-18 06:33N 35°29' E 139°47'0 0.0
2014-Apr-18 05:33N 35°29' E 139°47'1 1.4
2014-Apr-18 04:33N 35°30' E 139°45'1 1.3
2014-Apr-18 03:33N 35°29' E 139°47'0 0.0
2014-Apr-18 02:33N 35°29' E 139°47'2 1.8
2014-Apr-18 01:33N 35°28' E 139°45'2 2.3
2014-Apr-18 00:33N 35°27' E 139°42'3 2.5
2014-Apr-17 23:33N 35°27' E 139°39'0 0.0
2014-Apr-16 23:28N 35°27' E 139°39'4 4.7
2014-Apr-16 22:33N 35°30' E 139°43'3 2.8
2014-Apr-16 21:33N 35°27' E 139°44'3 3.0
2014-Apr-16 20:33N 35°26' E 139°41'0 0.1
2014-Apr-16 19:33N 35°26' E 139°41'2 1.7
2014-Apr-16 18:33N 35°28' E 139°42'0 0.3
2014-Apr-16 17:33N 35°28' E 139°42'0 0.0
2014-Apr-16 16:33N 35°28' E 139°42'1 0.6
2014-Apr-16 15:33N 35°27' E 139°42'0 0.0
2014-Apr-16 14:33N 35°27' E 139°42'0 0.0
2014-Apr-16 13:33N 35°27' E 139°42'1 0.9
2014-Apr-16 12:33N 35°28' E 139°42'2 1.9
2014-Apr-16 11:33N 35°26' E 139°43'2 2.1
2014-Apr-16 10:33N 35°28' E 139°42'3 2.8
2014-Apr-16 09:33N 35°26' E 139°44'4 3.7
2014-Apr-16 08:33N 35°24' E 139°41'3 3.3
2014-Apr-16 07:33N 35°27' E 139°40'0 0.5
2014-Apr-16 06:33N 35°27' E 139°39'0 0.0
2014-Apr-16 05:32N 35°27' E 139°39'0 0.0
2014-Apr-16 04:33N 35°27' E 139°39'0 0.0
2014-Apr-16 01:04N 35°27' E 139°39'0 0.0
2014-Apr-16 00:32N 35°27' E 139°39'0 0.0
2014-Apr-15 23:28N 35°27' E 139°39'0 0.0
2014-Apr-15 22:28N 35°27' E 139°39'0 0.0
2014-Apr-15 21:30N 35°27' E 139°39'0 0.0
2014-Apr-15 20:32N 35°27' E 139°39'0 0.0
2014-Apr-15 19:31N 35°27' E 139°39'0 0.0
2014-Apr-15 18:31N 35°27' E 139°39'0 0.0
2014-Apr-15 17:33N 35°27' E 139°39'0 0.0
2014-Apr-15 16:33N 35°27' E 139°39'0 0.0
2014-Apr-15 15:33N 35°27' E 139°39'0 0.0
2014-Apr-15 14:33N 35°27' E 139°39'0 0.0
2014-Apr-15 12:34N 35°27' E 139°39'0 0.0
2014-Apr-15 11:34N 35°27' E 139°39'0 0.0
2014-Apr-15 10:34N 35°27' E 139°39'0 0.0
2014-Apr-15 09:34N 35°27' E 139°39'0 0.0
2014-Apr-15 08:34N 35°27' E 139°39'0 0.0
2014-Apr-15 07:34N 35°27' E 139°39'0 0.0
2014-Apr-15 06:34N 35°27' E 139°39'0 0.0
2014-Apr-15 05:34N 35°27' E 139°39'0 0.0
2014-Apr-15 03:34N 35°27' E 139°39'4 4.2
2014-Apr-15 02:34N 35°28' E 139°44'3 2.7
2014-Apr-15 01:34N 35°29' E 139°47'1 0.7
2014-Apr-15 00:34N 35°29' E 139°47'2 2.3
2014-Apr-14 23:34N 35°27' E 139°45'2 1.8
2014-Apr-14 22:34N 35°28' E 139°44'2 1.8
2014-Apr-14 21:34N 35°29' E 139°43'2 2.0
2014-Apr-14 20:34N 35°27' E 139°43'3 3.2
2014-Apr-14 19:34N 35°27' E 139°39'0 0.0
2014-Apr-14 18:34N 35°27' E 139°39'0 0.0
2014-Apr-14 17:34N 35°27' E 139°39'0 0.0
2014-Apr-14 16:34N 35°27' E 139°39'0 0.0
2014-Apr-14 15:34N 35°27' E 139°39'0 0.0
2014-Apr-14 14:34N 35°27' E 139°39'0 0.0
2014-Apr-14 13:34N 35°27' E 139°39'0 0.0
2014-Apr-14 11:33N 35°27' E 139°39'0 0.0
2014-Apr-14 10:34N 35°27' E 139°39'0 0.0
2014-Apr-14 09:34N 35°27' E 139°39'0 0.0
2014-Apr-14 08:34N 35°27' E 139°39'0 0.0
2014-Apr-14 07:34N 35°27' E 139°39'0 0.0
2014-Apr-14 06:33N 35°27' E 139°39'0 0.0
2014-Apr-14 05:33N 35°27' E 139°39'2 0.3
2014-Apr-13 22:33N 35°27' E 139°41'2 1.8
2014-Apr-13 21:33N 35°27' E 139°39'0 0.0
2014-Apr-13 20:33N 35°27' E 139°39'0 0.0
2014-Apr-13 19:33N 35°27' E 139°39'0 0.0
2014-Apr-13 18:33N 35°27' E 139°39'0 0.0
2014-Apr-13 17:33N 35°27' E 139°39'0 0.0
2014-Apr-13 16:33N 35°27' E 139°39'0 0.0
2014-Apr-13 15:33N 35°27' E 139°39'0 0.0
2014-Apr-13 14:33N 35°27' E 139°39'0 0.0
2014-Apr-13 13:33N 35°27' E 139°39'0 0.0
2014-Apr-13 12:33N 35°27' E 139°39'0 0.0
2014-Apr-13 11:33N 35°27' E 139°39'0 0.0
2014-Apr-13 10:33N 35°27' E 139°39'0 0.0
2014-Apr-13 09:33N 35°27' E 139°39'0 0.0
2014-Apr-13 08:33N 35°27' E 139°39'0 0.0
2014-Apr-13 07:33N 35°27' E 139°39'0 0.0
2014-Apr-13 06:33N 35°27' E 139°39'0 0.0
2014-Apr-13 05:33N 35°27' E 139°39'0 0.0
2014-Apr-13 04:33N 35°27' E 139°39'0 0.0
2014-Apr-13 03:33N 35°27' E 139°39'0 0.0
2014-Apr-13 02:33N 35°27' E 139°39'0 0.0
2014-Apr-13 01:33N 35°27' E 139°39'0 0.0
2014-Apr-13 00:33N 35°27' E 139°39'1 1.5
2014-Apr-12 23:33N 35°26' E 139°41'2 2.0
2014-Apr-12 22:33N 35°25' E 139°43'3 3.5
2014-Apr-12 21:33N 35°27' E 139°39'0 0.0
2014-Apr-12 08:20N 35°27' E 139°39'0 0.0
2014-Apr-12 07:33N 35°27' E 139°39'0 0.0
2014-Apr-12 06:33N 35°27' E 139°39'0 0.0
2014-Apr-12 05:33N 35°27' E 139°39'0 0.0
2014-Apr-12 04:33N 35°27' E 139°39'0 0.0
2014-Apr-12 03:33N 35°27' E 139°39'0 0.0
2014-Apr-12 02:33N 35°27' E 139°39'2 2.3
2014-Apr-12 01:33N 35°28' E 139°42'1 1.3
2014-Apr-12 00:33N 35°28' E 139°40'1 1.1
2014-Apr-11 23:33N 35°27' E 139°39'1 1.4
2014-Apr-11 22:33N 35°26' E 139°41'1 1.5
2014-Apr-11 21:33N 35°27' E 139°39'  

Dump ship's entire track history

sailing weather and tide predictions

Kagamaru — JD3049 — position and weather